Time;durP1;ratioP1;P1;durP2;ratioP2;P2;SDS_P1;SDS_P2;PMS_P1;PMS_P2;Temp;Humidity;BMP_temperature;BMP_pressure;BME280_temperature;BME280_humidity;BME280_pressure;Samples;Min_cycle;Max_cycle;Signal;HPM_P1;HPM_P2
2021/09/16 00:00:19;;;;;;;;;;;18.00;99.90;;;;;;5974127;23;25049;-87
2021/09/16 00:02:45;;;;;;;;;;;17.80;99.90;;;;;;5974799;23;20094;-88
2021/09/16 00:05:11;;;;;;;;;;;17.80;99.90;;;;;;5973005;23;20170;-90
2021/09/16 00:07:36;;;;;;;;;;;17.90;99.90;;;;;;5953343;23;20105;-71
2021/09/16 00:10:03;;;;;;;;;;;17.80;99.90;;;;;;5973479;23;25054;-69
2021/09/16 00:12:31;;;;;;;;;;;17.80;99.90;;;;;;5972891;23;25036;-69
2021/09/16 00:14:57;;;;;;;;;;;17.70;99.90;;;;;;5948981;23;25054;-69
2021/09/16 00:17:30;;;;;;;;;;;17.70;99.90;;;;;;5945663;23;20200;-69
2021/09/16 00:19:55;;;;;;;;;;;17.70;99.90;;;;;;5948182;23;20057;-69
2021/09/16 00:22:21;;;;;;;;;;;17.70;99.90;;;;;;5923779;23;20119;-70
2021/09/16 00:24:49;;;;;;;;;;;17.70;99.90;;;;;;5947433;23;25082;-70
2021/09/16 00:27:14;;;;;;;;;;;17.70;99.90;;;;;;5920846;23;19967;-69
2021/09/16 00:29:40;;;;;;;;;;;17.70;99.90;;;;;;5947919;23;20200;-68
2021/09/16 00:32:09;;;;;;;;;;;17.70;99.90;;;;;;5947695;23;20114;-70
2021/09/16 00:34:35;;;;;;;;;;;17.60;99.90;;;;;;5922506;23;19994;-72
2021/09/16 00:37:02;;;;;;;;;;;17.70;99.90;;;;;;5945782;23;25062;-69
2021/09/16 00:39:28;;;;;;;;;;;17.70;99.90;;;;;;5947858;23;25087;-69
2021/09/16 00:41:53;;;;;;;;;;;17.70;99.90;;;;;;5948449;23;20155;-69
2021/09/16 00:44:19;;;;;;;;;;;17.70;99.90;;;;;;5923211;23;25079;-69
2021/09/16 00:46:44;;;;;;;;;;;17.70;99.90;;;;;;5946314;23;25091;-69
2021/09/16 00:49:10;;;;;;;;;;;17.70;99.90;;;;;;5947474;23;25067;-69
2021/09/16 00:51:39;;;;;;;;;;;17.60;99.90;;;;;;5923141;23;25056;-69
2021/09/16 00:54:05;;;;;;;;;;;17.70;99.90;;;;;;5947780;23;25049;-69
2021/09/16 00:56:31;;;;;;;;;;;17.60;99.90;;;;;;5963979;23;25058;-68
2021/09/16 00:59:00;;;;;;;;;;;17.60;99.90;;;;;;5957055;23;20142;-69
2021/09/16 01:01:28;;;;;;;;;;;17.60;99.90;;;;;;5922569;23;20104;-69
2021/09/16 01:03:54;;;;;;;;;;;17.60;99.90;;;;;;5921205;23;25048;-69
2021/09/16 01:06:22;;;;;;;;;;;17.60;99.90;;;;;;5945725;23;25050;-69
2021/09/16 01:08:47;;;;;;;;;;;17.60;99.90;;;;;;5921828;23;25046;-70
2021/09/16 01:11:18;;;;;;;;;;;17.60;99.90;;;;;;5947997;23;25053;-70
2021/09/16 01:13:46;;;;;;;;;;;17.60;99.90;;;;;;5947660;23;20120;-70
2021/09/16 01:16:12;;;;;;;;;;;17.60;99.90;;;;;;5946422;23;25056;-70
2021/09/16 01:18:37;;;;;;;;;;;17.60;99.90;;;;;;5946864;23;25085;-70
2021/09/16 01:21:03;;;;;;;;;;;17.70;99.90;;;;;;5947638;23;20568;-72
2021/09/16 01:23:29;;;;;;;;;;;17.60;99.90;;;;;;5923407;23;20108;-70
2021/09/16 01:26:01;;;;;;;;;;;17.60;99.90;;;;;;5946637;23;20449;-70
2021/09/16 01:28:27;;;;;;;;;;;17.70;99.90;;;;;;5921654;23;25058;-69
2021/09/16 01:30:55;;;;;;;;;;;17.60;99.90;;;;;;5922397;23;25083;-70
2021/09/16 01:33:24;;;;;;;;;;;17.60;99.90;;;;;;5922430;23;25120;-70
2021/09/16 01:35:49;;;;;;;;;;;17.50;99.90;;;;;;5946989;23;20527;-69
2021/09/16 01:38:19;;;;;;;;;;;17.50;99.90;;;;;;5948928;23;25046;-70
2021/09/16 01:40:45;;;;;;;;;;;17.50;99.90;;;;;;5947686;23;19968;-69
2021/09/16 01:43:10;;;;;;;;;;;17.50;99.90;;;;;;5947525;23;20210;-70
2021/09/16 01:45:36;;;;;;;;;;;17.50;99.90;;;;;;5947500;23;25042;-69
2021/09/16 01:48:01;;;;;;;;;;;17.50;99.90;;;;;;5956341;23;20316;-69
2021/09/16 01:50:26;;;;;;;;;;;17.50;99.90;;;;;;5925136;23;20143;-70
2021/09/16 01:52:52;;;;;;;;;;;17.50;99.90;;;;;;5948251;23;20127;-69
2021/09/16 01:55:21;;;;;;;;;;;17.50;99.90;;;;;;5946786;23;25090;-70
2021/09/16 01:57:48;;;;;;;;;;;17.50;99.90;;;;;;5946946;23;25070;-69
2021/09/16 02:00:14;;;;;;;;;;;17.50;99.90;;;;;;5945580;23;20308;-70
2021/09/16 02:02:42;;;;;;;;;;;17.50;99.90;;;;;;5948674;23;20108;-70
2021/09/16 02:05:08;;;;;;;;;;;17.50;99.90;;;;;;5953224;23;25062;-70
2021/09/16 02:07:37;;;;;;;;;;;17.40;99.90;;;;;;5951484;23;20281;-69
2021/09/16 02:10:02;;;;;;;;;;;17.40;99.90;;;;;;5948166;23;20410;-70
2021/09/16 02:12:28;;;;;;;;;;;17.50;99.90;;;;;;5945763;23;25114;-70
2021/09/16 02:14:53;;;;;;;;;;;17.50;99.90;;;;;;5947247;23;25061;-70
2021/09/16 02:17:19;;;;;;;;;;;17.40;99.90;;;;;;5920061;23;25057;-70
2021/09/16 02:19:44;;;;;;;;;;;17.30;99.90;;;;;;5949051;23;25059;-68
2021/09/16 02:22:12;;;;;;;;;;;17.30;99.90;;;;;;5947125;23;25092;-70
2021/09/16 02:24:38;;;;;;;;;;;17.30;99.90;;;;;;5948959;23;20051;-70
2021/09/16 02:27:13;;;;;;;;;;;17.30;99.90;;;;;;5948321;23;25065;-69
2021/09/16 02:29:40;;;;;;;;;;;17.30;99.90;;;;;;5954331;23;25050;-69
2021/09/16 02:32:08;;;;;;;;;;;17.30;99.90;;;;;;5947410;23;25071;-69
2021/09/16 02:34:39;;;;;;;;;;;17.30;99.90;;;;;;5947334;23;19996;-72
2021/09/16 02:37:10;;;;;;;;;;;17.20;99.90;;;;;;5921964;23;20064;-70
2021/09/16 02:39:35;;;;;;;;;;;17.20;99.90;;;;;;5922230;23;20099;-70
2021/09/16 02:42:04;;;;;;;;;;;17.20;99.90;;;;;;5920982;23;25089;-69
2021/09/16 02:44:29;;;;;;;;;;;17.10;99.90;;;;;;5946490;23;20134;-70
2021/09/16 02:46:55;;;;;;;;;;;17.10;99.90;;;;;;5945191;23;25115;-70
2021/09/16 02:49:20;;;;;;;;;;;17.00;99.90;;;;;;5947830;23;25127;-70
2021/09/16 02:51:46;;;;;;;;;;;17.00;99.90;;;;;;5948212;23;25062;-70
2021/09/16 02:54:11;;;;;;;;;;;17.00;99.90;;;;;;5958940;23;25086;-70
2021/09/16 02:56:37;;;;;;;;;;;17.00;99.90;;;;;;5924396;23;20191;-70
2021/09/16 02:59:02;;;;;;;;;;;16.90;99.90;;;;;;5947143;23;25048;-70
2021/09/16 03:01:27;;;;;;;;;;;16.90;99.90;;;;;;5923140;23;20180;-70
2021/09/16 03:03:53;;;;;;;;;;;16.90;99.90;;;;;;5947071;23;20103;-70
2021/09/16 03:06:18;;;;;;;;;;;16.90;99.90;;;;;;5946541;23;25040;-70
2021/09/16 03:08:50;;;;;;;;;;;16.90;99.90;;;;;;5948789;23;20190;-70
2021/09/16 03:11:15;;;;;;;;;;;16.90;99.90;;;;;;5950032;23;20022;-70
2021/09/16 03:13:41;;;;;;;;;;;16.80;99.90;;;;;;5947982;23;25048;-70
2021/09/16 03:16:06;;;;;;;;;;;16.80;99.90;;;;;;5921257;23;20408;-70
2021/09/16 03:18:32;;;;;;;;;;;16.80;99.90;;;;;;5922548;23;25046;-70
2021/09/16 03:20:59;;;;;;;;;;;16.80;99.90;;;;;;5947979;23;20126;-70
2021/09/16 03:23:28;;;;;;;;;;;16.80;99.90;;;;;;5948010;23;25099;-70
2021/09/16 03:25:53;;;;;;;;;;;16.80;99.90;;;;;;5945802;23;25050;-70
2021/09/16 03:28:19;;;;;;;;;;;16.70;99.90;;;;;;5922907;23;20046;-70
2021/09/16 03:30:44;;;;;;;;;;;16.70;99.90;;;;;;5947050;23;25082;-70
2021/09/16 03:33:10;;;;;;;;;;;16.70;99.90;;;;;;5942799;23;25102;-70
2021/09/16 03:35:38;;;;;;;;;;;16.70;99.90;;;;;;5920593;23;20177;-70
2021/09/16 03:38:03;;;;;;;;;;;16.60;99.90;;;;;;5947589;23;20530;-70
2021/09/16 03:40:31;;;;;;;;;;;16.70;99.90;;;;;;5922790;23;25035;-69
2021/09/16 03:42:58;;;;;;;;;;;16.70;99.90;;;;;;5962047;23;19955;-71
2021/09/16 03:45:24;;;;;;;;;;;16.60;99.90;;;;;;5933830;23;20161;-69
2021/09/16 03:47:49;;;;;;;;;;;16.60;99.90;;;;;;5950816;23;20207;-69
2021/09/16 03:50:15;;;;;;;;;;;16.60;99.90;;;;;;5924152;23;20106;-70
2021/09/16 03:52:43;;;;;;;;;;;16.60;99.90;;;;;;5922261;23;20219;-70
2021/09/16 03:55:08;;;;;;;;;;;16.60;99.90;;;;;;5948399;23;25097;-70
2021/09/16 03:57:36;;;;;;;;;;;16.60;99.90;;;;;;5921447;23;20178;-69
2021/09/16 04:00:02;;;;;;;;;;;16.60;99.90;;;;;;5920183;23;25071;-69
2021/09/16 04:02:28;;;;;;;;;;;16.60;99.90;;;;;;5948372;23;25063;-70
2021/09/16 04:04:53;;;;;;;;;;;16.50;99.90;;;;;;5946739;23;25088;-70
2021/09/16 04:07:18;;;;;;;;;;;16.50;99.90;;;;;;5947022;23;20114;-69
2021/09/16 04:09:44;;;;;;;;;;;16.50;99.90;;;;;;5946184;23;25043;-70
2021/09/16 04:12:09;;;;;;;;;;;16.50;99.90;;;;;;5922199;23;20073;-70
2021/09/16 04:14:35;;;;;;;;;;;16.50;99.90;;;;;;5947231;23;25087;-70
2021/09/16 04:17:03;;;;;;;;;;;16.50;99.90;;;;;;5920482;23;20170;-70
2021/09/16 04:19:28;;;;;;;;;;;16.60;99.90;;;;;;5947455;23;20130;-70
2021/09/16 04:21:54;;;;;;;;;;;16.50;99.90;;;;;;5946675;23;25045;-70
2021/09/16 04:24:21;;;;;;;;;;;16.50;99.90;;;;;;5945407;23;20162;-70
2021/09/16 04:26:47;;;;;;;;;;;16.50;99.90;;;;;;5922337;23;20292;-70
2021/09/16 04:29:15;;;;;;;;;;;16.40;99.90;;;;;;5947375;23;20184;-69
2021/09/16 04:31:43;;;;;;;;;;;16.40;99.90;;;;;;5944864;23;20174;-70
2021/09/16 04:34:08;;;;;;;;;;;16.40;99.90;;;;;;5947956;23;20540;-70
2021/09/16 04:36:34;;;;;;;;;;;16.40;99.90;;;;;;5946412;23;20064;-70
2021/09/16 04:39:00;;;;;;;;;;;16.40;99.90;;;;;;5947348;23;20066;-70
2021/09/16 04:41:26;;;;;;;;;;;16.40;99.90;;;;;;5947602;23;20140;-69
2021/09/16 04:43:51;;;;;;;;;;;16.40;99.90;;;;;;5946099;23;20088;-70
2021/09/16 04:46:19;;;;;;;;;;;16.40;99.90;;;;;;5922692;23;20104;-70
2021/09/16 04:48:44;;;;;;;;;;;16.30;99.90;;;;;;5948168;23;20608;-69
2021/09/16 04:51:12;;;;;;;;;;;16.30;99.90;;;;;;5922010;23;19995;-69
2021/09/16 04:53:38;;;;;;;;;;;16.30;99.90;;;;;;5921696;23;19977;-70
2021/09/16 04:56:03;;;;;;;;;;;16.30;99.90;;;;;;5942764;23;20575;-74
2021/09/16 04:58:29;;;;;;;;;;;16.30;99.90;;;;;;5945270;23;20074;-75
2021/09/16 05:00:54;;;;;;;;;;;16.30;99.90;;;;;;5922111;23;20067;-73
2021/09/16 05:03:20;;;;;;;;;;;16.30;99.90;;;;;;5963526;23;20104;-74
2021/09/16 05:05:45;;;;;;;;;;;16.30;99.90;;;;;;5958823;23;20067;-67
2021/09/16 05:08:15;;;;;;;;;;;16.30;99.90;;;;;;5923033;23;25048;-68
2021/09/16 05:10:44;;;;;;;;;;;16.30;99.90;;;;;;5946945;23;20107;-68
2021/09/16 05:13:09;;;;;;;;;;;16.20;99.90;;;;;;5948512;23;25083;-67
2021/09/16 05:15:35;;;;;;;;;;;16.20;99.90;;;;;;5949731;23;20038;-68
2021/09/16 05:18:03;;;;;;;;;;;16.20;99.90;;;;;;5951774;23;25045;-69
2021/09/16 05:20:29;;;;;;;;;;;16.20;99.90;;;;;;5946819;23;20076;-68
2021/09/16 05:22:54;;;;;;;;;;;16.20;99.90;;;;;;5944628;23;20090;-67
2021/09/16 05:25:22;;;;;;;;;;;16.30;99.90;;;;;;5943616;23;20091;-68
2021/09/16 05:27:48;;;;;;;;;;;16.30;99.90;;;;;;5942486;23;20167;-68
2021/09/16 05:30:15;;;;;;;;;;;16.30;99.90;;;;;;5918388;23;25089;-68
2021/09/16 05:32:40;;;;;;;;;;;16.30;99.90;;;;;;5946132;23;20012;-69
2021/09/16 05:35:06;;;;;;;;;;;16.20;99.90;;;;;;5942361;23;25053;-66
2021/09/16 05:37:31;;;;;;;;;;;16.20;99.90;;;;;;5944759;23;20063;-70
2021/09/16 05:39:57;;;;;;;;;;;16.20;99.90;;;;;;5949090;23;25044;-68
2021/09/16 05:42:23;;;;;;;;;;;16.20;99.90;;;;;;5923324;23;19978;-68
2021/09/16 05:44:48;;;;;;;;;;;16.20;99.90;;;;;;5948502;23;20466;-68
2021/09/16 05:47:16;;;;;;;;;;;16.20;99.90;;;;;;5946767;23;20125;-68
2021/09/16 05:49:41;;;;;;;;;;;16.20;99.90;;;;;;5948448;23;19990;-68
2021/09/16 05:52:09;;;;;;;;;;;16.20;99.90;;;;;;5925389;23;20215;-67
2021/09/16 05:54:35;;;;;;;;;;;16.10;99.90;;;;;;5950356;23;20086;-68
2021/09/16 05:57:00;;;;;;;;;;;16.20;99.90;;;;;;5949120;23;25085;-68
2021/09/16 05:59:26;;;;;;;;;;;16.20;99.90;;;;;;5947680;23;20386;-69
2021/09/16 06:01:51;;;;;;;;;;;16.30;99.90;;;;;;5921679;23;20059;-69
2021/09/16 06:04:17;;;;;;;;;;;16.30;99.90;;;;;;5910680;23;20127;-69
2021/09/16 06:06:42;;;;;;;;;;;16.20;99.90;;;;;;5945159;23;19968;-68
2021/09/16 06:09:07;;;;;;;;;;;16.20;99.90;;;;;;5948924;23;20054;-68
2021/09/16 06:11:33;;;;;;;;;;;16.20;99.90;;;;;;5949679;23;25038;-69
2021/09/16 06:13:58;;;;;;;;;;;16.20;99.90;;;;;;5947048;23;19970;-69
2021/09/16 06:16:24;;;;;;;;;;;16.20;99.90;;;;;;5942263;23;20121;-68
2021/09/16 06:18:49;;;;;;;;;;;16.20;99.90;;;;;;5948876;23;19972;-69
2021/09/16 06:21:15;;;;;;;;;;;16.20;99.90;;;;;;5924393;23;19976;-69
2021/09/16 06:23:41;;;;;;;;;;;16.20;99.90;;;;;;5944769;23;25083;-68
2021/09/16 06:26:06;;;;;;;;;;;16.30;99.90;;;;;;5947890;23;20649;-67
2021/09/16 06:28:32;;;;;;;;;;;16.30;99.90;;;;;;5946746;23;25073;-68
2021/09/16 06:30:57;;;;;;;;;;;16.30;99.90;;;;;;5924594;23;20073;-69
2021/09/16 06:33:23;;;;;;;;;;;16.30;99.90;;;;;;5960264;23;20106;-67
2021/09/16 06:35:48;;;;;;;;;;;16.30;99.90;;;;;;5939766;23;20080;-69
2021/09/16 06:38:13;;;;;;;;;;;16.30;99.90;;;;;;5953146;23;20632;-69
2021/09/16 06:40:39;;;;;;;;;;;16.30;99.90;;;;;;5929256;23;20017;-67
2021/09/16 06:43:04;;;;;;;;;;;16.30;99.90;;;;;;5928402;23;20074;-69
2021/09/16 06:45:30;;;;;;;;;;;16.40;99.90;;;;;;5952192;23;20060;-68
2021/09/16 06:47:55;;;;;;;;;;;16.40;99.90;;;;;;5953767;23;20116;-69
2021/09/16 06:50:21;;;;;;;;;;;16.40;99.90;;;;;;5953324;23;20607;-68
2021/09/16 06:52:46;;;;;;;;;;;16.50;99.90;;;;;;5951511;23;20082;-69
2021/09/16 06:55:12;;;;;;;;;;;16.40;99.90;;;;;;5958168;23;20086;-69
2021/09/16 06:57:37;;;;;;;;;;;16.40;99.90;;;;;;5951233;23;20086;-72
2021/09/16 07:00:03;;;;;;;;;;;16.40;99.90;;;;;;5949962;23;20119;-69
2021/09/16 07:02:29;;;;;;;;;;;16.40;99.90;;;;;;5950442;23;20399;-68
2021/09/16 07:04:55;;;;;;;;;;;16.40;99.90;;;;;;5922807;23;20084;-69
2021/09/16 07:07:20;;;;;;;;;;;16.40;99.90;;;;;;5949359;23;20137;-69
2021/09/16 07:09:46;;;;;;;;;;;16.40;99.90;;;;;;5951589;23;19961;-69
2021/09/16 07:12:11;;;;;;;;;;;16.50;99.90;;;;;;5949648;23;20061;-69
2021/09/16 07:14:37;;;;;;;;;;;16.50;99.90;;;;;;5950929;23;25057;-68
2021/09/16 07:17:02;;;;;;;;;;;16.50;99.90;;;;;;5951592;23;20062;-68
2021/09/16 07:19:28;;;;;;;;;;;16.50;99.90;;;;;;5951790;23;20085;-69
2021/09/16 07:21:54;;;;;;;;;;;16.60;99.90;;;;;;5927306;23;20690;-69
2021/09/16 07:24:20;;;;;;;;;;;16.60;99.90;;;;;;5952489;23;25045;-69
2021/09/16 07:26:51;;;;;;;;;;;16.70;99.90;;;;;;5951837;23;20063;-69
2021/09/16 07:29:17;;;;;;;;;;;16.70;99.90;;;;;;5925069;23;25048;-69
2021/09/16 07:31:43;;;;;;;;;;;16.70;99.90;;;;;;5926557;23;20008;-69
2021/09/16 07:34:08;;;;;;;;;;;16.80;99.90;;;;;;5950140;23;20100;-69
2021/09/16 07:36:34;;;;;;;;;;;16.80;99.90;;;;;;5924902;23;25044;-69
2021/09/16 07:38:59;;;;;;;;;;;16.80;99.90;;;;;;5950299;23;19990;-69
2021/09/16 07:41:25;;;;;;;;;;;16.80;99.90;;;;;;5953215;23;25090;-69
2021/09/16 07:43:50;;;;;;;;;;;16.80;99.90;;;;;;5951962;23;19984;-69
2021/09/16 07:46:16;;;;;;;;;;;16.80;99.90;;;;;;5925566;23;25038;-69
2021/09/16 07:48:41;;;;;;;;;;;16.90;99.90;;;;;;5925883;23;20339;-69
2021/09/16 07:51:06;;;;;;;;;;;16.90;99.90;;;;;;5951227;23;20056;-69
2021/09/16 07:53:32;;;;;;;;;;;16.90;99.90;;;;;;5952385;23;20104;-69
2021/09/16 07:55:58;;;;;;;;;;;16.90;99.90;;;;;;5926059;23;20097;-69
2021/09/16 07:58:23;;;;;;;;;;;16.90;99.90;;;;;;5927287;23;20086;-69
2021/09/16 08:00:51;;;;;;;;;;;17.00;99.90;;;;;;5951279;23;20095;-68
2021/09/16 08:03:16;;;;;;;;;;;17.00;99.90;;;;;;5951325;23;20111;-69
2021/09/16 08:05:42;;;;;;;;;;;17.00;99.90;;;;;;5949896;23;19997;-68
2021/09/16 08:08:07;;;;;;;;;;;17.00;99.90;;;;;;5926611;23;25141;-69
2021/09/16 08:10:32;;;;;;;;;;;17.10;99.90;;;;;;5953217;23;20412;-69
2021/09/16 08:12:58;;;;;;;;;;;17.10;99.90;;;;;;5951678;23;20400;-69
2021/09/16 08:15:23;;;;;;;;;;;17.10;99.90;;;;;;5950730;23;20076;-69
2021/09/16 08:17:49;;;;;;;;;;;17.20;99.90;;;;;;5952186;23;20105;-69
2021/09/16 08:20:15;;;;;;;;;;;17.20;99.90;;;;;;5952989;23;20635;-69
2021/09/16 08:22:43;;;;;;;;;;;17.30;99.90;;;;;;5925460;23;20389;-67
2021/09/16 08:25:12;;;;;;;;;;;17.40;99.90;;;;;;5951507;23;20077;-68
2021/09/16 08:27:37;;;;;;;;;;;17.40;99.90;;;;;;5951558;23;19977;-69
2021/09/16 08:30:07;;;;;;;;;;;17.50;99.90;;;;;;5951097;23;20106;-69
2021/09/16 08:32:33;;;;;;;;;;;17.50;99.90;;;;;;5925201;23;25042;-69
2021/09/16 08:34:58;;;;;;;;;;;17.40;99.90;;;;;;5949585;23;19964;-69
2021/09/16 08:37:24;;;;;;;;;;;17.40;99.90;;;;;;5924466;23;20112;-69
2021/09/16 08:39:50;;;;;;;;;;;17.50;99.90;;;;;;5950790;23;20152;-69
2021/09/16 08:42:16;;;;;;;;;;;17.50;99.90;;;;;;5949691;23;20063;-69
2021/09/16 08:44:42;;;;;;;;;;;17.50;99.90;;;;;;5950820;23;20517;-69
2021/09/16 08:47:09;;;;;;;;;;;17.50;99.90;;;;;;5946331;23;25080;-69
2021/09/16 08:49:34;;;;;;;;;;;17.60;99.90;;;;;;5924290;23;20257;-69
2021/09/16 08:52:00;;;;;;;;;;;17.70;99.90;;;;;;5949790;23;20056;-69
2021/09/16 08:54:27;;;;;;;;;;;17.70;99.90;;;;;;5947283;23;20083;-69
2021/09/16 08:56:53;;;;;;;;;;;17.80;99.90;;;;;;5950061;23;20148;-69
2021/09/16 08:59:19;;;;;;;;;;;17.70;99.90;;;;;;5952017;23;20007;-69
2021/09/16 09:01:45;;;;;;;;;;;17.80;99.90;;;;;;5925760;23;20462;-69
2021/09/16 09:04:12;;;;;;;;;;;18.00;99.90;;;;;;5950798;23;19955;-69
2021/09/16 09:06:38;;;;;;;;;;;18.10;99.90;;;;;;5946942;23;20647;-69
2021/09/16 09:09:06;;;;;;;;;;;18.20;99.90;;;;;;5951033;23;20057;-69
2021/09/16 09:11:31;;;;;;;;;;;18.30;99.90;;;;;;5950359;23;20416;-69
2021/09/16 09:13:57;;;;;;;;;;;18.30;99.90;;;;;;5949240;23;20099;-69
2021/09/16 09:16:32;;;;;;;;;;;18.30;99.90;;;;;;5955175;23;20132;-69
2021/09/16 09:18:58;;;;;;;;;;;18.40;99.90;;;;;;5953734;23;20579;-69
2021/09/16 09:21:23;;;;;;;;;;;18.40;99.90;;;;;;5924969;23;20081;-69
2021/09/16 09:23:54;;;;;;;;;;;18.40;99.90;;;;;;5951241;23;25041;-69
2021/09/16 09:26:33;;;;;;;;;;;18.30;99.90;;;;;;5924590;23;20628;-69
2021/09/16 09:29:08;;;;;;;;;;;18.30;99.90;;;;;;5963345;23;19973;-67
2021/09/16 09:31:38;;;;;;;;;;;18.30;99.90;;;;;;5963290;23;25044;-69
2021/09/16 09:34:23;;;;;;;;;;;18.30;99.90;;;;;;5952172;23;19979;-69
2021/09/16 09:36:49;;;;;;;;;;;18.40;99.90;;;;;;5948342;23;20593;-69
2021/09/16 09:39:14;;;;;;;;;;;18.40;99.90;;;;;;5925386;23;25130;-69
2021/09/16 09:41:40;;;;;;;;;;;18.60;99.90;;;;;;5947538;23;19960;-69
2021/09/16 09:44:10;;;;;;;;;;;18.70;99.90;;;;;;5950351;23;20124;-69
2021/09/16 09:46:41;;;;;;;;;;;18.70;99.90;;;;;;5949240;23;20097;-69
2021/09/16 09:49:09;;;;;;;;;;;18.80;99.90;;;;;;5951344;23;25057;-69
2021/09/16 09:51:55;;;;;;;;;;;18.90;99.90;;;;;;5948710;23;20282;-69
2021/09/16 09:54:32;;;;;;;;;;;19.00;99.90;;;;;;5949359;23;20508;-69
2021/09/16 09:57:03;;;;;;;;;;;19.00;99.90;;;;;;5950976;23;20489;-69
2021/09/16 09:59:48;;;;;;;;;;;19.00;99.90;;;;;;5924973;23;25059;-69
2021/09/16 10:02:14;;;;;;;;;;;19.10;99.90;;;;;;5952072;23;19984;-69
2021/09/16 10:04:41;;;;;;;;;;;19.20;99.90;;;;;;5951458;23;20080;-69
2021/09/16 10:07:06;;;;;;;;;;;19.20;99.90;;;;;;5948689;23;20167;-68
2021/09/16 10:09:34;;;;;;;;;;;19.30;99.90;;;;;;5952650;23;20016;-69
2021/09/16 10:11:59;;;;;;;;;;;19.30;99.90;;;;;;5952054;23;19962;-70
2021/09/16 10:14:25;;;;;;;;;;;19.30;99.90;;;;;;5949900;23;25085;-69
2021/09/16 10:16:52;;;;;;;;;;;19.40;99.90;;;;;;5950316;23;19968;-69
2021/09/16 10:19:17;;;;;;;;;;;19.50;99.90;;;;;;5952336;23;20064;-73
2021/09/16 10:21:43;;;;;;;;;;;19.40;99.90;;;;;;5950501;23;20185;-69
2021/09/16 10:24:13;;;;;;;;;;;19.40;99.90;;;;;;5950269;23;20020;-68
2021/09/16 10:26:40;;;;;;;;;;;19.30;99.90;;;;;;5952578;23;20105;-69
2021/09/16 10:29:25;;;;;;;;;;;19.30;99.90;;;;;;5952183;23;20026;-71
2021/09/16 10:31:50;;;;;;;;;;;19.40;99.90;;;;;;5927791;23;25114;-68
2021/09/16 10:34:34;;;;;;;;;;;19.50;99.90;;;;;;5948355;23;19984;-69
2021/09/16 10:37:13;;;;;;;;;;;19.50;99.90;;;;;;5949203;23;20147;-69
2021/09/16 10:39:39;;;;;;;;;;;19.50;99.90;;;;;;5950518;23;20072;-69
2021/09/16 10:42:04;;;;;;;;;;;19.50;99.90;;;;;;5945297;23;20356;-69
2021/09/16 10:44:30;;;;;;;;;;;19.50;99.90;;;;;;5924606;23;20016;-69
2021/09/16 10:47:00;;;;;;;;;;;19.40;99.90;;;;;;5948908;23;20031;-69
2021/09/16 10:49:28;;;;;;;;;;;19.50;99.90;;;;;;5950675;23;20181;-70
2021/09/16 10:51:55;;;;;;;;;;;19.50;99.90;;;;;;5926642;23;20444;-70
2021/09/16 10:54:23;;;;;;;;;;;19.60;99.90;;;;;;5948975;23;20087;-69
2021/09/16 10:56:59;;;;;;;;;;;19.60;99.90;;;;;;5950394;23;20081;-70
2021/09/16 10:59:44;;;;;;;;;;;19.60;99.90;;;;;;5949720;23;20095;-69
2021/09/16 11:02:10;;;;;;;;;;;19.60;99.90;;;;;;5949206;23;25114;-69
2021/09/16 11:04:57;;;;;;;;;;;19.60;99.90;;;;;;5949715;23;20009;-69
2021/09/16 11:07:31;;;;;;;;;;;19.70;99.90;;;;;;5947721;23;25059;-69
2021/09/16 11:10:15;;;;;;;;;;;19.60;99.90;;;;;;5925456;23;19987;-69
2021/09/16 11:12:53;;;;;;;;;;;19.50;99.90;;;;;;5952011;23;20172;-69
2021/09/16 11:15:38;;;;;;;;;;;19.60;99.90;;;;;;5925958;23;20697;-69
2021/09/16 11:18:04;;;;;;;;;;;19.70;99.90;;;;;;5950773;23;19977;-69
2021/09/16 11:20:29;;;;;;;;;;;19.90;99.90;;;;;;5950339;23;19974;-69
2021/09/16 11:22:55;;;;;;;;;;;20.00;99.90;;;;;;5953617;23;20502;-69
2021/09/16 11:25:20;;;;;;;;;;;20.10;99.90;;;;;;5925507;23;20574;-69
2021/09/16 11:27:46;;;;;;;;;;;20.20;99.90;;;;;;5951560;23;20414;-69
2021/09/16 11:30:16;;;;;;;;;;;20.30;99.90;;;;;;5927981;23;20106;-70
2021/09/16 11:32:42;;;;;;;;;;;20.40;99.90;;;;;;5951494;23;19967;-70
2021/09/16 11:35:12;;;;;;;;;;;20.50;99.90;;;;;;5927165;23;20123;-69
2021/09/16 11:37:39;;;;;;;;;;;20.60;99.90;;;;;;5950358;23;20014;-69
2021/09/16 11:40:05;;;;;;;;;;;20.60;99.90;;;;;;5953039;23;20639;-70
2021/09/16 11:42:31;;;;;;;;;;;20.70;99.90;;;;;;5950997;23;20070;-70
2021/09/16 11:45:11;;;;;;;;;;;20.70;99.90;;;;;;5951044;23;20123;-70
2021/09/16 11:47:45;;;;;;;;;;;20.70;99.90;;;;;;5950557;23;20751;-70
2021/09/16 11:50:21;;;;;;;;;;;20.80;99.90;;;;;;5938499;23;20061;-70
2021/09/16 11:52:47;;;;;;;;;;;20.70;99.90;;;;;;5966561;23;20099;-71
2021/09/16 11:55:14;;;;;;;;;;;20.70;99.90;;;;;;5963556;23;20094;-70
2021/09/16 11:57:58;;;;;;;;;;;20.70;99.90;;;;;;5941477;23;25051;-69
2021/09/16 12:00:31;;;;;;;;;;;20.60;99.90;;;;;;5964149;23;19975;-69
2021/09/16 12:02:57;;;;;;;;;;;20.30;99.90;;;;;;5966721;23;20050;-70
2021/09/16 12:05:36;;;;;;;;;;;20.20;99.90;;;;;;5961519;23;20112;-70
2021/09/16 12:08:06;;;;;;;;;;;20.00;99.90;;;;;;5951361;23;20114;-70
2021/09/16 12:10:45;;;;;;;;;;;19.90;99.90;;;;;;5947249;23;20100;-68
2021/09/16 12:13:11;;;;;;;;;;;19.80;99.90;;;;;;5949660;23;20098;-67
2021/09/16 12:15:37;;;;;;;;;;;19.70;99.90;;;;;;5921455;23;20023;-68
2021/09/16 12:18:03;;;;;;;;;;;19.80;99.90;;;;;;5950193;23;20066;-69
2021/09/16 12:20:29;;;;;;;;;;;19.80;99.90;;;;;;5954056;23;20238;-70
2021/09/16 12:22:55;;;;;;;;;;;19.90;99.90;;;;;;5927723;23;20530;-69
2021/09/16 12:25:20;;;;;;;;;;;19.80;99.90;;;;;;5951699;23;20124;-69
2021/09/16 12:28:00;;;;;;;;;;;19.80;99.90;;;;;;5955074;23;19984;-68
2021/09/16 12:30:26;;;;;;;;;;;19.70;99.90;;;;;;5965736;23;25109;-69
2021/09/16 12:32:51;;;;;;;;;;;19.70;99.90;;;;;;5965795;23;19977;-68
2021/09/16 12:35:18;;;;;;;;;;;19.60;99.90;;;;;;5949029;23;25041;-69
2021/09/16 12:37:44;;;;;;;;;;;19.50;99.90;;;;;;5921638;23;20095;-69
2021/09/16 12:40:25;;;;;;;;;;;19.50;99.90;;;;;;5948399;23;20079;-69
2021/09/16 12:43:01;;;;;;;;;;;19.40;99.90;;;;;;5946995;23;20158;-69
2021/09/16 12:45:28;;;;;;;;;;;19.40;99.90;;;;;;5944265;23;19997;-69
2021/09/16 12:47:54;;;;;;;;;;;19.50;99.90;;;;;;5945117;23;20089;-69
2021/09/16 12:50:21;;;;;;;;;;;19.70;99.90;;;;;;5946514;23;25046;-69
2021/09/16 12:52:47;;;;;;;;;;;19.70;99.90;;;;;;5945148;23;20037;-70
2021/09/16 12:55:13;;;;;;;;;;;19.60;99.90;;;;;;5946055;23;20088;-70
2021/09/16 12:57:42;;;;;;;;;;;19.60;99.90;;;;;;5942855;23;25081;-69
2021/09/16 13:00:09;;;;;;;;;;;19.50;99.90;;;;;;5921778;23;20676;-69
2021/09/16 13:02:45;;;;;;;;;;;19.50;99.90;;;;;;5943381;23;25083;-76
2021/09/16 13:05:17;;;;;;;;;;;19.60;99.90;;;;;;5943800;23;20075;-78
2021/09/16 13:07:43;;;;;;;;;;;19.80;99.90;;;;;;5948955;23;20116;-77
2021/09/16 13:10:18;;;;;;;;;;;19.90;99.90;;;;;;5950310;23;25061;-77
2021/09/16 13:12:45;;;;;;;;;;;19.90;99.90;;;;;;5950006;23;19980;-71
2021/09/16 13:15:12;;;;;;;;;;;20.00;99.90;;;;;;5951607;23;20486;-71
2021/09/16 13:17:38;;;;;;;;;;;20.00;99.90;;;;;;5949244;23;20136;-71
2021/09/16 13:20:04;;;;;;;;;;;19.90;99.90;;;;;;5953023;23;20224;-71
2021/09/16 13:22:29;;;;;;;;;;;19.90;99.90;;;;;;5952257;23;20476;-71
2021/09/16 13:24:55;;;;;;;;;;;20.00;99.90;;;;;;5951951;23;20105;-71
2021/09/16 13:27:21;;;;;;;;;;;20.20;99.90;;;;;;5951434;23;20081;-71
2021/09/16 13:29:46;;;;;;;;;;;20.30;99.90;;;;;;5926320;23;25049;-71
2021/09/16 13:32:12;;;;;;;;;;;20.40;99.90;;;;;;5950298;23;20047;-71
2021/09/16 13:34:37;;;;;;;;;;;20.50;99.90;;;;;;5950250;23;20068;-71
2021/09/16 13:37:03;;;;;;;;;;;20.60;99.90;;;;;;5936509;23;20138;-70
2021/09/16 13:39:28;;;;;;;;;;;20.50;99.90;;;;;;5937471;23;20002;-69
2021/09/16 13:41:54;;;;;;;;;;;20.50;99.90;;;;;;5936435;23;25085;-70
2021/09/16 13:44:21;;;;;;;;;;;20.50;99.90;;;;;;5937594;23;20643;-70
2021/09/16 13:46:48;;;;;;;;;;;20.30;99.90;;;;;;5937225;23;19972;-70
2021/09/16 13:49:14;;;;;;;;;;;20.30;99.90;;;;;;5940486;23;20091;-70
2021/09/16 13:51:39;;;;;;;;;;;20.20;99.90;;;;;;5938014;23;25054;-70
2021/09/16 13:54:04;;;;;;;;;;;20.10;99.90;;;;;;5938841;23;25057;-71
2021/09/16 13:56:30;;;;;;;;;;;20.10;99.90;;;;;;5913285;23;20148;-70
2021/09/16 13:58:56;;;;;;;;;;;20.00;99.90;;;;;;5938946;23;20160;-71
2021/09/16 14:01:21;;;;;;;;;;;20.00;99.90;;;;;;5939108;23;25062;-70
2021/09/16 14:03:47;;;;;;;;;;;19.90;99.90;;;;;;5914835;23;20108;-70
2021/09/16 14:06:14;;;;;;;;;;;19.90;99.90;;;;;;5941659;23;25060;-70
2021/09/16 14:08:39;;;;;;;;;;;19.90;99.90;;;;;;5914475;23;25091;-70
2021/09/16 14:11:06;;;;;;;;;;;19.70;99.90;;;;;;5916109;23;20113;-70
2021/09/16 14:13:34;;;;;;;;;;;19.70;99.90;;;;;;5919796;23;20125;-70
2021/09/16 14:15:59;;;;;;;;;;;19.70;99.90;;;;;;5941107;23;25037;-70